Ron Hunter — WDH4137 — position and weather

sailwx.info

Track history (hours):
 
Tides and Currents Weather Stations Pressure Air Temp Water Temp Dewpoint Dewpoint Depression Visibility Wind Speed Wind Dir Waves Ship Positions

Ron Hunter

Owner: HF Marine, LLC, Nashville, TN. More information available from US FCC via Universal Licensing System and Coast Guard Vessel Documentation Center.

Last reported at 2017-Dec-16 01:30 UTC. Time now 2017-Dec-16 01:30 UTC.
Position N 32°36' W 091°08'.

Length 48 m; draft 3 m.

Type: Towing. MMSI: 367614550.

Date/timePositionNaut miles runAvg speedWind from/ knotsBaromVisibWave heightAir tempDewpointWater temp
2017-Dec-16 01:30N 32°36' W 091°08'2 4.3
2017-Dec-16 01:01N 32°34' W 091°06'2 3.9
2017-Dec-16 00:30N 32°32' W 091°06'2 4.7
2017-Dec-16 00:00N 32°30' W 091°07'2 4.9
2017-Dec-15 23:30N 32°28' W 091°06'2 4.9
2017-Dec-15 23:00N 32°26' W 091°04'2 4.7
2017-Dec-15 22:30N 32°26' W 091°01'2 3.9
2017-Dec-15 22:01N 32°24' W 090°59'2 4.4
2017-Dec-15 21:31N 32°22' W 091°00'2 4.4
2017-Dec-15 21:01N 32°21' W 090°58'1 2.8
2017-Dec-15 20:31N 32°21' W 090°56'1 2.0
2017-Dec-15 20:00N 32°21' W 090°55'2 3.6
2017-Dec-15 19:31N 32°19' W 090°54'1 2.9
2017-Dec-15 19:01N 32°18' W 090°55'0 0.0
2017-Dec-15 18:30N 32°18' W 090°55'0 0.0
2017-Dec-15 18:01N 32°18' W 090°55'0 0.0
2017-Dec-15 17:31N 32°18' W 090°55'0 0.0
2017-Dec-15 17:01N 32°18' W 090°55'0 0.0
2017-Dec-15 16:30N 32°18' W 090°55'0 0.1
2017-Dec-15 16:00N 32°18' W 090°55'2 3.7
2017-Dec-15 15:30N 32°17' W 090°57'2 4.4
2017-Dec-15 15:00N 32°15' W 090°59'2 4.1
2017-Dec-15 14:31N 32°13' W 090°59'2 4.7
2017-Dec-15 14:00N 32°11' W 090°60'2 4.8
2017-Dec-15 13:31N 32°09' W 091°00'2 4.1
2017-Dec-15 13:00N 32°07' W 091°02'3 4.9
2017-Dec-15 12:24N 32°08' W 091°05'2 3.9
2017-Dec-15 12:01N 32°07' W 091°07'4 4.6
2017-Dec-15 11:02N 32°03' W 091°03'0 5.1
2017-Dec-15 11:00N 32°03' W 091°03'2 4.6
2017-Dec-15 10:31N 32°01' W 091°04'6 4.4
2017-Dec-15 09:03N 31°58' W 091°11'  
2017-Dec-10 01:25N 31°60' W 091°06'7 7.2
2017-Dec-10 00:23N 32°07' W 091°06'2 5.8
2017-Dec-10 00:01N 32°08' W 091°04'3 6.7
2017-Dec-09 23:30N 32°09' W 091°00'4 8.6
2017-Dec-09 23:00N 32°13' W 090°59'4 8.3
2017-Dec-09 22:30N 32°17' W 090°57'3 7.0
2017-Dec-09 22:01N 32°19' W 090°54'3 6.2
2017-Dec-09 21:31N 32°21' W 090°57'0 0.7
2017-Dec-09 21:00N 32°21' W 090°58'0 0.6
2017-Dec-09 20:31N 32°21' W 090°58'3 5.7
2017-Dec-09 20:00N 32°23' W 090°60'4 7.1
2017-Dec-09 19:30N 32°26' W 091°02'4 8.1
2017-Dec-09 19:00N 32°28' W 091°06'4 8.1
2017-Dec-09 18:27N 32°33' W 091°06'4 8.2
2017-Dec-09 18:00N 32°36' W 091°08'  
Track history (hours):
 
Tides and Currents Weather Stations Pressure Air Temp Water Temp Dewpoint Dewpoint Depression Visibility Wind Speed Wind Dir Waves Ship Positions

Ron Hunter

Owner: HF Marine, LLC, Nashville, TN. More information available from US FCC via Universal Licensing System and Coast Guard Vessel Documentation Center.

Last reported at 2017-Dec-16 01:30 UTC. Time now 2017-Dec-16 01:30 UTC.
Position N 32°36' W 091°08'.

Length 48 m; draft 3 m.

Type: Towing. MMSI: 367614550.

Date/timePositionNaut miles runAvg speedWind from/ knotsBaromVisibWave heightAir tempDewpointWater temp
2017-Dec-16 01:30N 32°36' W 091°08'2 4.3
2017-Dec-16 01:01N 32°34' W 091°06'2 3.9
2017-Dec-16 00:30N 32°32' W 091°06'2 4.7
2017-Dec-16 00:00N 32°30' W 091°07'2 4.9
2017-Dec-15 23:30N 32°28' W 091°06'2 4.9
2017-Dec-15 23:00N 32°26' W 091°04'2 4.7
2017-Dec-15 22:30N 32°26' W 091°01'2 3.9
2017-Dec-15 22:01N 32°24' W 090°59'2 4.4
2017-Dec-15 21:31N 32°22' W 091°00'2 4.4
2017-Dec-15 21:01N 32°21' W 090°58'1 2.8
2017-Dec-15 20:31N 32°21' W 090°56'1 2.0
2017-Dec-15 20:00N 32°21' W 090°55'2 3.6
2017-Dec-15 19:31N 32°19' W 090°54'1 2.9
2017-Dec-15 19:01N 32°18' W 090°55'0 0.0
2017-Dec-15 18:30N 32°18' W 090°55'0 0.0
2017-Dec-15 18:01N 32°18' W 090°55'0 0.0
2017-Dec-15 17:31N 32°18' W 090°55'0 0.0
2017-Dec-15 17:01N 32°18' W 090°55'0 0.0
2017-Dec-15 16:30N 32°18' W 090°55'0 0.1
2017-Dec-15 16:00N 32°18' W 090°55'2 3.7
2017-Dec-15 15:30N 32°17' W 090°57'2 4.4
2017-Dec-15 15:00N 32°15' W 090°59'2 4.1
2017-Dec-15 14:31N 32°13' W 090°59'2 4.7
2017-Dec-15 14:00N 32°11' W 090°60'2 4.8
2017-Dec-15 13:31N 32°09' W 091°00'2 4.1
2017-Dec-15 13:00N 32°07' W 091°02'3 4.9
2017-Dec-15 12:24N 32°08' W 091°05'2 3.9
2017-Dec-15 12:01N 32°07' W 091°07'4 4.6
2017-Dec-15 11:02N 32°03' W 091°03'0 5.1
2017-Dec-15 11:00N 32°03' W 091°03'2 4.6
2017-Dec-15 10:31N 32°01' W 091°04'6 4.4
2017-Dec-15 09:03N 31°58' W 091°11'  
2017-Dec-10 01:25N 31°60' W 091°06'7 7.2
2017-Dec-10 00:23N 32°07' W 091°06'2 5.8
2017-Dec-10 00:01N 32°08' W 091°04'3 6.7
2017-Dec-09 23:30N 32°09' W 091°00'4 8.6
2017-Dec-09 23:00N 32°13' W 090°59'4 8.3
2017-Dec-09 22:30N 32°17' W 090°57'3 7.0
2017-Dec-09 22:01N 32°19' W 090°54'3 6.2
2017-Dec-09 21:31N 32°21' W 090°57'0 0.7
2017-Dec-09 21:00N 32°21' W 090°58'0 0.6
2017-Dec-09 20:31N 32°21' W 090°58'3 5.7
2017-Dec-09 20:00N 32°23' W 090°60'4 7.1
2017-Dec-09 19:30N 32°26' W 091°02'4 8.1
2017-Dec-09 19:00N 32°28' W 091°06'4 8.1
2017-Dec-09 18:27N 32°33' W 091°06'4 8.2
2017-Dec-09 18:00N 32°36' W 091°08'  

Dump ship's entire track history